sensor_id;sensor_type;location;lat;lon;timestamp;P1;durP1;ratioP1;P2;durP2;ratioP2
76675;SDS011;69204;55.350;36.906;2024-03-07T00:03:04;11.88;;;6.28;;
76675;SDS011;69204;55.350;36.906;2024-03-07T00:08:05;9.90;;;4.93;;
76675;SDS011;69204;55.350;36.906;2024-03-07T00:13:06;8.38;;;5.53;;
76675;SDS011;69204;55.350;36.906;2024-03-07T00:18:08;13.93;;;6.32;;
76675;SDS011;69204;55.350;36.906;2024-03-07T00:23:10;15.05;;;5.28;;
76675;SDS011;69204;55.350;36.906;2024-03-07T00:28:12;11.00;;;6.80;;
76675;SDS011;69204;55.350;36.906;2024-03-07T00:33:13;10.63;;;4.50;;
76675;SDS011;69204;55.350;36.906;2024-03-07T00:38:14;11.85;;;6.70;;
76675;SDS011;69204;55.350;36.906;2024-03-07T00:43:18;6.88;;;4.72;;
76675;SDS011;69204;55.350;36.906;2024-03-07T00:48:19;7.63;;;3.70;;
76675;SDS011;69204;55.350;36.906;2024-03-07T00:53:20;6.05;;;4.15;;
76675;SDS011;69204;55.350;36.906;2024-03-07T00:58:21;5.73;;;3.80;;
76675;SDS011;69204;55.350;36.906;2024-03-07T01:03:22;4.90;;;3.70;;
76675;SDS011;69204;55.350;36.906;2024-03-07T01:08:24;5.22;;;4.28;;
76675;SDS011;69204;55.350;36.906;2024-03-07T01:13:25;8.07;;;4.75;;
76675;SDS011;69204;55.350;36.906;2024-03-07T01:18:26;5.47;;;4.67;;
76675;SDS011;69204;55.350;36.906;2024-03-07T01:23:28;9.40;;;4.40;;
76675;SDS011;69204;55.350;36.906;2024-03-07T01:28:29;13.37;;;5.43;;
76675;SDS011;69204;55.350;36.906;2024-03-07T01:33:33;10.05;;;4.90;;
76675;SDS011;69204;55.350;36.906;2024-03-07T01:38:34;9.70;;;5.88;;
76675;SDS011;69204;55.350;36.906;2024-03-07T01:43:37;6.33;;;4.67;;
76675;SDS011;69204;55.350;36.906;2024-03-07T01:48:38;8.18;;;4.57;;
76675;SDS011;69204;55.350;36.906;2024-03-07T01:53:43;6.47;;;4.23;;
76675;SDS011;69204;55.350;36.906;2024-03-07T01:58:45;5.50;;;4.03;;
76675;SDS011;69204;55.350;36.906;2024-03-07T02:03:47;4.47;;;3.60;;
76675;SDS011;69204;55.350;36.906;2024-03-07T02:08:48;7.60;;;3.83;;
76675;SDS011;69204;55.350;36.906;2024-03-07T02:13:49;9.70;;;4.32;;
76675;SDS011;69204;55.350;36.906;2024-03-07T02:18:50;12.47;;;5.00;;
76675;SDS011;69204;55.350;36.906;2024-03-07T02:23:51;6.00;;;4.47;;
76675;SDS011;69204;55.350;36.906;2024-03-07T02:28:53;5.63;;;4.27;;
76675;SDS011;69204;55.350;36.906;2024-03-07T02:33:55;5.25;;;3.50;;
76675;SDS011;69204;55.350;36.906;2024-03-07T02:38:56;5.90;;;4.32;;
76675;SDS011;69204;55.350;36.906;2024-03-07T02:44:00;9.00;;;5.47;;
76675;SDS011;69204;55.350;36.906;2024-03-07T02:49:04;7.03;;;5.70;;
76675;SDS011;69204;55.350;36.906;2024-03-07T02:54:05;6.20;;;4.33;;
76675;SDS011;69204;55.350;36.906;2024-03-07T02:59:06;8.85;;;4.47;;
76675;SDS011;69204;55.350;36.906;2024-03-07T03:04:06;6.90;;;4.57;;
76675;SDS011;69204;55.350;36.906;2024-03-07T03:09:08;7.22;;;3.72;;
76675;SDS011;69204;55.350;36.906;2024-03-07T03:14:13;8.50;;;4.33;;
76675;SDS011;69204;55.350;36.906;2024-03-07T03:19:20;4.82;;;3.95;;
76675;SDS011;69204;55.350;36.906;2024-03-07T03:24:23;4.72;;;3.92;;
76675;SDS011;69204;55.350;36.906;2024-03-07T03:29:24;5.80;;;4.20;;
76675;SDS011;69204;55.350;36.906;2024-03-07T03:34:25;20.90;;;5.18;;
76675;SDS011;69204;55.350;36.906;2024-03-07T03:39:27;6.63;;;4.77;;
76675;SDS011;69204;55.350;36.906;2024-03-07T03:44:28;5.53;;;4.10;;
76675;SDS011;69204;55.350;36.906;2024-03-07T03:49:30;6.47;;;4.43;;
76675;SDS011;69204;55.350;36.906;2024-03-07T03:54:31;6.40;;;4.82;;
76675;SDS011;69204;55.350;36.906;2024-03-07T03:59:32;4.87;;;3.90;;
76675;SDS011;69204;55.350;36.906;2024-03-07T04:04:33;7.50;;;4.45;;
76675;SDS011;69204;55.350;36.906;2024-03-07T04:09:36;9.43;;;6.20;;
76675;SDS011;69204;55.350;36.906;2024-03-07T04:14:38;10.38;;;5.78;;
76675;SDS011;69204;55.350;36.906;2024-03-07T04:19:41;13.90;;;5.93;;
76675;SDS011;69204;55.350;36.906;2024-03-07T04:24:47;10.82;;;6.07;;
76675;SDS011;69204;55.350;36.906;2024-03-07T04:29:54;7.45;;;5.70;;
76675;SDS011;69204;55.350;36.906;2024-03-07T04:34:55;16.40;;;7.37;;
76675;SDS011;69204;55.350;36.906;2024-03-07T04:40:00;20.85;;;7.28;;
76675;SDS011;69204;55.350;36.906;2024-03-07T04:45:02;25.17;;;7.50;;
76675;SDS011;69204;55.350;36.906;2024-03-07T04:50:03;10.50;;;5.88;;
76675;SDS011;69204;55.350;36.906;2024-03-07T04:55:05;22.20;;;10.02;;
76675;SDS011;69204;55.350;36.906;2024-03-07T05:00:09;18.77;;;8.30;;
76675;SDS011;69204;55.350;36.906;2024-03-07T05:05:19;15.93;;;8.60;;
76675;SDS011;69204;55.350;36.906;2024-03-07T05:10:28;13.73;;;7.97;;
76675;SDS011;69204;55.350;36.906;2024-03-07T05:15:31;15.43;;;6.85;;
76675;SDS011;69204;55.350;36.906;2024-03-07T05:20:31;19.83;;;6.78;;
76675;SDS011;69204;55.350;36.906;2024-03-07T05:25:32;11.85;;;5.40;;
76675;SDS011;69204;55.350;36.906;2024-03-07T05:30:33;16.63;;;6.37;;
76675;SDS011;69204;55.350;36.906;2024-03-07T05:35:34;17.48;;;6.50;;
76675;SDS011;69204;55.350;36.906;2024-03-07T05:40:35;21.97;;;7.70;;
76675;SDS011;69204;55.350;36.906;2024-03-07T05:45:37;21.92;;;8.98;;
76675;SDS011;69204;55.350;36.906;2024-03-07T05:50:38;19.80;;;8.95;;
76675;SDS011;69204;55.350;36.906;2024-03-07T05:55:39;26.27;;;9.63;;
76675;SDS011;69204;55.350;36.906;2024-03-07T06:00:43;22.85;;;7.70;;
76675;SDS011;69204;55.350;36.906;2024-03-07T06:05:44;29.43;;;9.07;;
76675;SDS011;69204;55.350;36.906;2024-03-07T06:10:48;15.93;;;6.35;;
76675;SDS011;69204;55.350;36.906;2024-03-07T06:15:50;20.38;;;7.07;;
76675;SDS011;69204;55.350;36.906;2024-03-07T06:20:51;24.92;;;9.43;;
76675;SDS011;69204;55.350;36.906;2024-03-07T06:25:52;16.83;;;6.78;;
76675;SDS011;69204;55.350;36.906;2024-03-07T06:30:55;8.75;;;3.83;;
76675;SDS011;69204;55.350;36.906;2024-03-07T06:35:56;7.38;;;3.42;;
76675;SDS011;69204;55.350;36.906;2024-03-07T06:40:57;5.67;;;2.97;;
76675;SDS011;69204;55.350;36.906;2024-03-07T06:45:58;7.28;;;3.25;;
76675;SDS011;69204;55.350;36.906;2024-03-07T06:50:59;6.97;;;3.13;;
76675;SDS011;69204;55.350;36.906;2024-03-07T06:56:00;7.80;;;3.17;;
76675;SDS011;69204;55.350;36.906;2024-03-07T07:01:01;5.78;;;2.88;;
76675;SDS011;69204;55.350;36.906;2024-03-07T07:06:08;6.67;;;3.10;;
76675;SDS011;69204;55.350;36.906;2024-03-07T07:11:09;4.55;;;2.58;;
76675;SDS011;69204;55.350;36.906;2024-03-07T07:16:11;5.37;;;3.47;;
76675;SDS011;69204;55.350;36.906;2024-03-07T07:21:13;4.55;;;2.92;;
76675;SDS011;69204;55.350;36.906;2024-03-07T07:26:16;6.60;;;3.35;;
76675;SDS011;69204;55.350;36.906;2024-03-07T07:31:17;6.13;;;3.10;;
76675;SDS011;69204;55.350;36.906;2024-03-07T07:36:18;5.20;;;3.33;;
76675;SDS011;69204;55.350;36.906;2024-03-07T07:41:19;6.27;;;3.33;;
76675;SDS011;69204;55.350;36.906;2024-03-07T07:46:20;7.60;;;3.65;;
76675;SDS011;69204;55.350;36.906;2024-03-07T07:51:22;4.93;;;3.10;;
76675;SDS011;69204;55.350;36.906;2024-03-07T07:56:23;5.80;;;2.87;;
76675;SDS011;69204;55.350;36.906;2024-03-07T08:01:25;6.38;;;2.65;;
76675;SDS011;69204;55.350;36.906;2024-03-07T08:06:27;8.67;;;3.10;;
76675;SDS011;69204;55.350;36.906;2024-03-07T08:11:28;3.78;;;2.35;;
76675;SDS011;69204;55.350;36.906;2024-03-07T08:16:29;7.30;;;3.15;;
76675;SDS011;69204;55.350;36.906;2024-03-07T08:21:30;5.50;;;3.15;;
76675;SDS011;69204;55.350;36.906;2024-03-07T08:26:32;4.85;;;2.53;;
76675;SDS011;69204;55.350;36.906;2024-03-07T08:31:33;6.10;;;2.53;;
76675;SDS011;69204;55.350;36.906;2024-03-07T08:36:34;5.18;;;2.67;;
76675;SDS011;69204;55.350;36.906;2024-03-07T08:41:38;4.80;;;2.50;;
76675;SDS011;69204;55.350;36.906;2024-03-07T08:46:41;4.80;;;2.63;;
76675;SDS011;69204;55.350;36.906;2024-03-07T08:51:44;6.40;;;2.88;;
76675;SDS011;69204;55.350;36.906;2024-03-07T08:56:45;4.20;;;2.57;;
76675;SDS011;69204;55.350;36.906;2024-03-07T09:01:46;6.85;;;3.05;;
76675;SDS011;69204;55.350;36.906;2024-03-07T09:06:47;4.70;;;2.93;;
76675;SDS011;69204;55.350;36.906;2024-03-07T09:11:48;5.70;;;2.90;;
76675;SDS011;69204;55.350;36.906;2024-03-07T09:16:49;4.20;;;2.53;;
76675;SDS011;69204;55.350;36.906;2024-03-07T09:21:51;4.88;;;2.38;;
76675;SDS011;69204;55.350;36.906;2024-03-07T09:26:52;4.43;;;2.10;;
76675;SDS011;69204;55.350;36.906;2024-03-07T09:31:56;5.77;;;2.20;;
76675;SDS011;69204;55.350;36.906;2024-03-07T09:36:57;5.35;;;2.42;;
76675;SDS011;69204;55.350;36.906;2024-03-07T09:41:59;5.07;;;2.80;;
76675;SDS011;69204;55.350;36.906;2024-03-07T09:47:00;5.88;;;3.30;;
76675;SDS011;69204;55.350;36.906;2024-03-07T09:52:06;5.43;;;2.55;;
76675;SDS011;69204;55.350;36.906;2024-03-07T09:57:12;5.03;;;2.50;;
76675;SDS011;69204;55.350;36.906;2024-03-07T10:02:13;7.05;;;2.47;;
76675;SDS011;69204;55.350;36.906;2024-03-07T10:07:17;6.57;;;2.88;;
76675;SDS011;69204;55.350;36.906;2024-03-07T10:12:19;4.15;;;2.35;;
76675;SDS011;69204;55.350;36.906;2024-03-07T10:17:20;4.63;;;2.30;;
76675;SDS011;69204;55.350;36.906;2024-03-07T10:22:24;4.77;;;1.90;;
76675;SDS011;69204;55.350;36.906;2024-03-07T10:27:26;5.05;;;2.20;;
76675;SDS011;69204;55.350;36.906;2024-03-07T10:32:29;3.00;;;1.63;;
76675;SDS011;69204;55.350;36.906;2024-03-07T10:37:30;3.75;;;1.90;;
76675;SDS011;69204;55.350;36.906;2024-03-07T10:42:32;4.00;;;2.08;;
76675;SDS011;69204;55.350;36.906;2024-03-07T10:47:35;3.80;;;2.17;;
76675;SDS011;69204;55.350;36.906;2024-03-07T10:53:02;4.18;;;2.55;;
76675;SDS011;69204;55.350;36.906;2024-03-07T10:58:51;5.68;;;1.70;;
76675;SDS011;69204;55.350;36.906;2024-03-07T11:03:22;3.85;;;2.35;;
76675;SDS011;69204;55.350;36.906;2024-03-07T11:08:23;4.20;;;2.10;;
76675;SDS011;69204;55.350;36.906;2024-03-07T11:13:26;4.77;;;2.70;;
76675;SDS011;69204;55.350;36.906;2024-03-07T11:18:29;4.47;;;2.08;;
76675;SDS011;69204;55.350;36.906;2024-03-07T11:23:31;3.90;;;2.30;;
76675;SDS011;69204;55.350;36.906;2024-03-07T11:28:40;4.43;;;2.60;;
76675;SDS011;69204;55.350;36.906;2024-03-07T11:33:42;4.25;;;1.70;;
76675;SDS011;69204;55.350;36.906;2024-03-07T11:38:44;5.23;;;2.20;;
76675;SDS011;69204;55.350;36.906;2024-03-07T11:43:46;5.78;;;2.80;;
76675;SDS011;69204;55.350;36.906;2024-03-07T11:48:47;4.93;;;2.05;;
76675;SDS011;69204;55.350;36.906;2024-03-07T11:53:48;4.82;;;1.80;;
76675;SDS011;69204;55.350;36.906;2024-03-07T11:58:52;5.07;;;1.98;;
76675;SDS011;69204;55.350;36.906;2024-03-07T12:03:55;4.20;;;2.10;;
76675;SDS011;69204;55.350;36.906;2024-03-07T12:08:56;5.10;;;2.17;;
76675;SDS011;69204;55.350;36.906;2024-03-07T12:13:59;4.07;;;1.80;;
76675;SDS011;69204;55.350;36.906;2024-03-07T12:19:00;4.80;;;2.30;;
76675;SDS011;69204;55.350;36.906;2024-03-07T12:24:15;5.35;;;1.90;;
76675;SDS011;69204;55.350;36.906;2024-03-07T12:29:16;4.03;;;2.13;;
76675;SDS011;69204;55.350;36.906;2024-03-07T12:34:17;4.32;;;2.00;;
76675;SDS011;69204;55.350;36.906;2024-03-07T12:39:25;3.65;;;1.83;;
76675;SDS011;69204;55.350;36.906;2024-03-07T12:44:26;3.38;;;1.80;;
76675;SDS011;69204;55.350;36.906;2024-03-07T12:49:28;8.27;;;2.33;;
76675;SDS011;69204;55.350;36.906;2024-03-07T12:54:29;8.67;;;2.20;;
76675;SDS011;69204;55.350;36.906;2024-03-07T12:59:30;4.93;;;2.00;;
76675;SDS011;69204;55.350;36.906;2024-03-07T13:04:31;5.37;;;2.27;;
76675;SDS011;69204;55.350;36.906;2024-03-07T13:09:32;3.28;;;1.70;;
76675;SDS011;69204;55.350;36.906;2024-03-07T13:14:34;4.60;;;1.90;;
76675;SDS011;69204;55.350;36.906;2024-03-07T13:19:35;3.60;;;2.10;;
76675;SDS011;69204;55.350;36.906;2024-03-07T13:24:40;4.30;;;2.17;;
76675;SDS011;69204;55.350;36.906;2024-03-07T13:29:43;4.30;;;2.00;;
76675;SDS011;69204;55.350;36.906;2024-03-07T13:34:45;4.78;;;1.88;;
76675;SDS011;69204;55.350;36.906;2024-03-07T13:39:46;5.03;;;1.67;;
76675;SDS011;69204;55.350;36.906;2024-03-07T13:44:47;4.43;;;1.67;;
76675;SDS011;69204;55.350;36.906;2024-03-07T13:49:48;5.55;;;1.70;;
76675;SDS011;69204;55.350;36.906;2024-03-07T13:54:52;6.30;;;1.97;;
76675;SDS011;69204;55.350;36.906;2024-03-07T14:21:12;6.23;;;2.37;;
76675;SDS011;69204;55.350;36.906;2024-03-07T14:31:37;6.70;;;3.00;;
76675;SDS011;69204;55.350;36.906;2024-03-07T14:37:03;8.15;;;3.65;;
76675;SDS011;69204;55.350;36.906;2024-03-07T14:42:06;5.43;;;2.47;;
76675;SDS011;69204;55.350;36.906;2024-03-07T14:47:10;5.33;;;2.63;;
76675;SDS011;69204;55.350;36.906;2024-03-07T14:52:11;5.18;;;2.83;;
76675;SDS011;69204;55.350;36.906;2024-03-07T14:57:13;8.98;;;2.60;;
76675;SDS011;69204;55.350;36.906;2024-03-07T15:02:14;6.55;;;2.97;;
76675;SDS011;69204;55.350;36.906;2024-03-07T15:07:15;4.00;;;1.80;;
76675;SDS011;69204;55.350;36.906;2024-03-07T15:12:29;15.07;;;7.03;;
76675;SDS011;69204;55.350;36.906;2024-03-07T15:17:31;6.20;;;2.97;;
76675;SDS011;69204;55.350;36.906;2024-03-07T15:22:33;7.47;;;3.85;;
76675;SDS011;69204;55.350;36.906;2024-03-07T15:27:34;5.13;;;2.55;;
76675;SDS011;69204;55.350;36.906;2024-03-07T15:32:50;9.75;;;2.10;;
76675;SDS011;69204;55.350;36.906;2024-03-07T15:37:51;3.37;;;1.80;;
76675;SDS011;69204;55.350;36.906;2024-03-07T15:42:54;4.53;;;2.25;;
76675;SDS011;69204;55.350;36.906;2024-03-07T15:48:00;6.38;;;1.88;;
76675;SDS011;69204;55.350;36.906;2024-03-07T15:53:20;5.28;;;2.03;;
76675;SDS011;69204;55.350;36.906;2024-03-07T15:58:21;5.63;;;1.92;;
76675;SDS011;69204;55.350;36.906;2024-03-07T16:03:23;4.40;;;2.03;;
76675;SDS011;69204;55.350;36.906;2024-03-07T16:13:45;3.97;;;1.90;;
76675;SDS011;69204;55.350;36.906;2024-03-07T16:18:46;12.27;;;4.13;;
76675;SDS011;69204;55.350;36.906;2024-03-07T16:23:47;8.85;;;3.63;;
76675;SDS011;69204;55.350;36.906;2024-03-07T16:28:49;3.30;;;2.00;;
76675;SDS011;69204;55.350;36.906;2024-03-07T16:33:50;3.25;;;1.83;;
76675;SDS011;69204;55.350;36.906;2024-03-07T16:38:51;3.83;;;2.23;;
76675;SDS011;69204;55.350;36.906;2024-03-07T16:43:52;4.68;;;2.50;;
76675;SDS011;69204;55.350;36.906;2024-03-07T16:48:53;11.07;;;5.13;;
76675;SDS011;69204;55.350;36.906;2024-03-07T16:53:55;8.30;;;2.60;;
76675;SDS011;69204;55.350;36.906;2024-03-07T16:58:57;3.85;;;2.10;;
76675;SDS011;69204;55.350;36.906;2024-03-07T17:03:58;7.13;;;3.70;;
76675;SDS011;69204;55.350;36.906;2024-03-07T17:08:59;13.77;;;6.55;;
76675;SDS011;69204;55.350;36.906;2024-03-07T17:14:00;10.15;;;4.65;;
76675;SDS011;69204;55.350;36.906;2024-03-07T17:19:01;16.53;;;6.93;;
76675;SDS011;69204;55.350;36.906;2024-03-07T17:24:02;24.73;;;8.82;;
76675;SDS011;69204;55.350;36.906;2024-03-07T17:29:03;15.33;;;6.40;;
76675;SDS011;69204;55.350;36.906;2024-03-07T17:34:04;16.88;;;6.70;;
76675;SDS011;69204;55.350;36.906;2024-03-07T17:39:07;11.07;;;4.07;;
76675;SDS011;69204;55.350;36.906;2024-03-07T17:44:14;8.23;;;4.28;;
76675;SDS011;69204;55.350;36.906;2024-03-07T17:49:18;11.75;;;4.82;;
76675;SDS011;69204;55.350;36.906;2024-03-07T17:54:24;10.23;;;4.17;;
76675;SDS011;69204;55.350;36.906;2024-03-07T17:59:28;14.00;;;5.50;;
76675;SDS011;69204;55.350;36.906;2024-03-07T18:04:29;23.30;;;8.13;;
76675;SDS011;69204;55.350;36.906;2024-03-07T18:09:31;28.17;;;11.63;;
76675;SDS011;69204;55.350;36.906;2024-03-07T18:14:32;25.27;;;7.75;;
76675;SDS011;69204;55.350;36.906;2024-03-07T18:19:34;21.70;;;8.63;;
76675;SDS011;69204;55.350;36.906;2024-03-07T18:24:35;56.78;;;19.05;;
76675;SDS011;69204;55.350;36.906;2024-03-07T18:29:37;30.17;;;10.47;;
76675;SDS011;69204;55.350;36.906;2024-03-07T18:34:41;10.02;;;5.65;;
76675;SDS011;69204;55.350;36.906;2024-03-07T18:39:54;18.92;;;7.68;;
76675;SDS011;69204;55.350;36.906;2024-03-07T18:44:56;14.10;;;6.00;;
76675;SDS011;69204;55.350;36.906;2024-03-07T18:49:58;10.65;;;6.53;;
76675;SDS011;69204;55.350;36.906;2024-03-07T18:54:59;14.90;;;6.20;;
76675;SDS011;69204;55.350;36.906;2024-03-07T19:00:14;13.13;;;4.68;;
76675;SDS011;69204;55.350;36.906;2024-03-07T19:05:30;11.82;;;5.53;;
76675;SDS011;69204;55.350;36.906;2024-03-07T19:10:31;11.80;;;4.18;;
76675;SDS011;69204;55.350;36.906;2024-03-07T19:15:32;26.13;;;10.07;;
76675;SDS011;69204;55.350;36.906;2024-03-07T19:20:33;22.67;;;8.17;;
76675;SDS011;69204;55.350;36.906;2024-03-07T19:25:41;13.23;;;5.82;;
76675;SDS011;69204;55.350;36.906;2024-03-07T19:30:43;15.07;;;5.70;;
76675;SDS011;69204;55.350;36.906;2024-03-07T19:35:48;14.15;;;6.43;;
76675;SDS011;69204;55.350;36.906;2024-03-07T19:40:56;15.32;;;6.43;;
76675;SDS011;69204;55.350;36.906;2024-03-07T19:45:58;18.00;;;6.23;;
76675;SDS011;69204;55.350;36.906;2024-03-07T19:50:59;69.28;;;17.70;;
76675;SDS011;69204;55.350;36.906;2024-03-07T19:56:01;136.85;;;29.67;;
76675;SDS011;69204;55.350;36.906;2024-03-07T20:01:05;115.97;;;30.13;;
76675;SDS011;69204;55.350;36.906;2024-03-07T20:06:11;65.68;;;17.45;;
76675;SDS011;69204;55.350;36.906;2024-03-07T20:11:15;35.77;;;9.87;;
76675;SDS011;69204;55.350;36.906;2024-03-07T20:16:19;32.80;;;8.25;;
76675;SDS011;69204;55.350;36.906;2024-03-07T20:21:21;25.90;;;9.48;;
76675;SDS011;69204;55.350;36.906;2024-03-07T20:26:22;53.92;;;13.93;;
76675;SDS011;69204;55.350;36.906;2024-03-07T20:31:23;34.30;;;11.05;;
76675;SDS011;69204;55.350;36.906;2024-03-07T20:36:24;54.53;;;13.82;;
76675;SDS011;69204;55.350;36.906;2024-03-07T20:41:26;38.95;;;10.65;;
76675;SDS011;69204;55.350;36.906;2024-03-07T20:46:29;31.17;;;7.87;;
76675;SDS011;69204;55.350;36.906;2024-03-07T20:51:30;39.58;;;12.98;;
76675;SDS011;69204;55.350;36.906;2024-03-07T20:56:37;29.27;;;10.60;;
76675;SDS011;69204;55.350;36.906;2024-03-07T21:01:45;21.35;;;7.50;;
76675;SDS011;69204;55.350;36.906;2024-03-07T21:06:47;31.38;;;8.43;;
76675;SDS011;69204;55.350;36.906;2024-03-07T21:11:48;31.63;;;8.50;;
76675;SDS011;69204;55.350;36.906;2024-03-07T21:16:50;22.67;;;8.93;;
76675;SDS011;69204;55.350;36.906;2024-03-07T21:21:53;17.47;;;5.33;;
76675;SDS011;69204;55.350;36.906;2024-03-07T21:26:54;27.92;;;7.93;;
76675;SDS011;69204;55.350;36.906;2024-03-07T21:31:55;33.17;;;7.73;;
76675;SDS011;69204;55.350;36.906;2024-03-07T21:36:57;21.55;;;7.57;;
76675;SDS011;69204;55.350;36.906;2024-03-07T21:42:00;14.52;;;6.60;;
76675;SDS011;69204;55.350;36.906;2024-03-07T21:47:04;17.10;;;4.90;;
76675;SDS011;69204;55.350;36.906;2024-03-07T21:52:05;10.95;;;5.07;;
76675;SDS011;69204;55.350;36.906;2024-03-07T21:57:08;11.67;;;5.97;;
76675;SDS011;69204;55.350;36.906;2024-03-07T22:02:08;5.78;;;3.67;;
76675;SDS011;69204;55.350;36.906;2024-03-07T22:07:14;6.32;;;3.80;;
76675;SDS011;69204;55.350;36.906;2024-03-07T22:12:16;12.40;;;4.50;;
76675;SDS011;69204;55.350;36.906;2024-03-07T22:17:18;10.35;;;4.32;;
76675;SDS011;69204;55.350;36.906;2024-03-07T22:22:19;10.23;;;5.07;;
76675;SDS011;69204;55.350;36.906;2024-03-07T22:27:20;11.05;;;4.43;;
76675;SDS011;69204;55.350;36.906;2024-03-07T22:32:21;10.40;;;4.13;;
76675;SDS011;69204;55.350;36.906;2024-03-07T22:37:22;8.70;;;3.90;;
76675;SDS011;69204;55.350;36.906;2024-03-07T22:42:23;8.33;;;3.90;;
76675;SDS011;69204;55.350;36.906;2024-03-07T22:47:24;10.15;;;3.88;;
76675;SDS011;69204;55.350;36.906;2024-03-07T22:52:26;10.07;;;4.28;;
76675;SDS011;69204;55.350;36.906;2024-03-07T22:57:27;8.70;;;4.10;;
76675;SDS011;69204;55.350;36.906;2024-03-07T23:02:29;8.00;;;3.38;;
76675;SDS011;69204;55.350;36.906;2024-03-07T23:07:31;7.83;;;4.50;;
76675;SDS011;69204;55.350;36.906;2024-03-07T23:12:33;9.20;;;4.43;;
76675;SDS011;69204;55.350;36.906;2024-03-07T23:17:34;6.80;;;3.42;;
76675;SDS011;69204;55.350;36.906;2024-03-07T23:22:38;9.50;;;3.70;;
76675;SDS011;69204;55.350;36.906;2024-03-07T23:27:44;7.65;;;4.68;;
76675;SDS011;69204;55.350;36.906;2024-03-07T23:32:45;8.80;;;4.30;;
76675;SDS011;69204;55.350;36.906;2024-03-07T23:37:46;11.25;;;4.10;;
76675;SDS011;69204;55.350;36.906;2024-03-07T23:42:48;12.02;;;4.97;;
76675;SDS011;69204;55.350;36.906;2024-03-07T23:47:51;7.73;;;4.53;;
76675;SDS011;69204;55.350;36.906;2024-03-07T23:52:52;8.45;;;4.55;;
76675;SDS011;69204;55.350;36.906;2024-03-07T23:57:55;8.70;;;4.17;;
